createdAt,value
2018-04-27T00:00:46.437Z,7.90
2018-04-27T00:03:12.752Z,7.90
2018-04-27T00:05:39.073Z,7.80
2018-04-27T00:08:06.132Z,7.90
2018-04-27T00:10:32.414Z,7.80
2018-04-27T00:12:58.923Z,7.80
2018-04-27T00:15:25.252Z,7.90
2018-04-27T00:17:51.577Z,7.90
2018-04-27T00:20:17.925Z,8.00
2018-04-27T00:22:44.937Z,8.00
2018-04-27T00:25:11.299Z,8.00
2018-04-27T00:27:37.630Z,7.90
2018-04-27T00:30:04.742Z,7.90
2018-04-27T00:32:31.179Z,8.00
2018-04-27T00:34:57.473Z,8.00
2018-04-27T00:37:23.799Z,8.00
2018-04-27T00:39:50.165Z,8.00
2018-04-27T00:42:17.215Z,8.00
2018-04-27T00:44:44.343Z,8.10
2018-04-27T00:47:11.414Z,8.10
2018-04-27T00:49:37.713Z,8.10
2018-04-27T00:52:04.043Z,8.10
2018-04-27T00:54:30.331Z,8.10
2018-04-27T00:56:56.632Z,8.20
2018-04-27T00:59:23.684Z,8.40
2018-04-27T01:01:50.759Z,8.50
2018-04-27T01:04:17.093Z,8.50
2018-04-27T01:06:43.438Z,8.50
2018-04-27T01:09:09.766Z,8.60
2018-04-27T01:11:36.046Z,8.50
2018-04-27T01:14:03.093Z,8.50
2018-04-27T01:16:29.367Z,8.50
2018-04-27T01:18:55.675Z,8.60
2018-04-27T01:21:21.937Z,8.70
2018-04-27T01:23:48.305Z,8.50
2018-04-27T01:26:14.583Z,8.40
2018-04-27T01:28:40.876Z,8.30
2018-04-27T01:31:07.889Z,8.50
2018-04-27T01:33:34.184Z,8.50
2018-04-27T01:36:00.496Z,8.50
2018-04-27T01:38:26.821Z,8.60
2018-04-27T01:40:53.852Z,8.60
2018-04-27T01:43:20.879Z,8.60
2018-04-27T01:45:47.185Z,8.60
2018-04-27T01:48:13.533Z,8.70
2018-04-27T01:50:39.833Z,8.60
2018-04-27T01:53:06.149Z,8.60
2018-04-27T01:55:32.400Z,8.60
2018-04-27T01:57:58.737Z,8.60
2018-04-27T02:00:25.027Z,8.60
2018-04-27T02:02:52.048Z,8.50
2018-04-27T02:05:18.404Z,8.50
2018-04-27T02:07:45.458Z,8.50
2018-04-27T02:10:12.532Z,8.50
2018-04-27T02:12:38.875Z,8.50
2018-04-27T02:15:05.231Z,8.40
2018-04-27T02:17:31.549Z,8.40
2018-04-27T02:19:57.787Z,8.20
2018-04-27T02:22:24.122Z,8.20
2018-04-27T02:24:50.410Z,8.10
2018-04-27T02:27:16.704Z,8.00
2018-04-27T02:29:43.008Z,7.90
2018-04-27T02:32:09.378Z,7.80
2018-04-27T02:34:36.469Z,7.60
2018-04-27T02:37:02.780Z,7.60
2018-04-27T02:39:29.074Z,7.50
2018-04-27T02:41:55.380Z,7.40
2018-04-27T02:44:21.642Z,7.30
2018-04-27T02:46:48.735Z,7.10
2018-04-27T02:49:15.030Z,7.10
2018-04-27T02:51:42.060Z,7.00
2018-04-27T02:54:08.360Z,6.90
2018-04-27T02:56:34.660Z,6.90
2018-04-27T02:59:00.908Z,6.80
2018-04-27T03:01:27.179Z,6.80
2018-04-27T03:03:53.469Z,6.70
2018-04-27T03:06:19.755Z,6.70
2018-04-27T03:08:46.807Z,6.60
2018-04-27T03:11:13.157Z,6.60
2018-04-27T03:13:39.462Z,6.60
2018-04-27T03:16:06.537Z,6.40
2018-04-27T03:18:32.901Z,6.40
2018-04-27T03:20:59.232Z,6.40
2018-04-27T03:23:25.561Z,6.40
2018-04-27T03:25:51.843Z,6.30
2018-04-27T03:28:18.965Z,6.30
2018-04-27T03:30:45.245Z,6.20
2018-04-27T03:33:11.552Z,6.20
2018-04-27T03:35:38.632Z,6.20
2018-04-27T03:38:05.018Z,6.10
2018-04-27T03:40:31.303Z,6.10
2018-04-27T03:42:57.652Z,6.10
2018-04-27T03:45:24.031Z,6.10
2018-04-27T03:47:50.326Z,6.20
2018-04-27T03:50:23.647Z,6.30
2018-04-27T03:52:50.647Z,6.40
2018-04-27T03:55:16.953Z,6.40
2018-04-27T03:57:43.212Z,6.50
2018-04-27T04:00:28.172Z,6.50
2018-04-27T04:03:13.022Z,6.50
2018-04-27T04:05:39.439Z,6.60
2018-04-27T04:08:05.956Z,6.70
2018-04-27T04:10:33.064Z,6.70
2018-04-27T04:12:59.344Z,6.70
2018-04-27T04:15:26.457Z,6.90
2018-04-27T04:17:52.724Z,6.80
2018-04-27T04:20:19.799Z,7.00
2018-04-27T04:22:46.129Z,7.00
2018-04-27T04:25:12.429Z,7.10
2018-04-27T04:27:39.477Z,7.30
2018-04-27T04:30:06.512Z,7.40
2018-04-27T04:32:33.606Z,7.50
2018-04-27T04:34:59.940Z,7.50
2018-04-27T04:37:26.247Z,7.50
2018-04-27T04:39:53.296Z,7.40
2018-04-27T04:42:19.574Z,7.40
2018-04-27T04:44:45.856Z,7.40
2018-04-27T04:47:12.923Z,7.60
2018-04-27T04:49:39.562Z,7.60
2018-04-27T04:52:05.863Z,7.70
2018-04-27T04:54:32.977Z,8.10
2018-04-27T04:57:00.027Z,8.20
2018-04-27T04:59:26.346Z,8.20
2018-04-27T05:01:52.689Z,8.30
2018-04-27T05:04:18.986Z,8.40
2018-04-27T05:06:45.279Z,8.50
2018-04-27T05:09:12.351Z,9.00
2018-04-27T05:11:38.649Z,9.00
2018-04-27T05:14:04.924Z,9.00
2018-04-27T05:16:31.327Z,9.00
2018-04-27T05:19:03.431Z,8.90
2018-04-27T05:21:29.747Z,9.10
2018-04-27T05:23:56.059Z,9.30
2018-04-27T05:26:23.072Z,9.60
2018-04-27T05:28:49.379Z,9.50
2018-04-27T05:31:24.190Z,9.70
2018-04-27T05:33:50.486Z,9.70
2018-04-27T05:36:19.256Z,9.80
2018-04-27T05:38:45.519Z,9.80
2018-04-27T05:41:11.795Z,9.90
2018-04-27T05:43:38.095Z,10.00
2018-04-27T05:46:04.419Z,10.30
2018-04-27T05:48:30.748Z,10.20
2018-04-27T05:50:57.052Z,10.40
2018-04-27T05:53:24.119Z,10.30
2018-04-27T05:55:51.157Z,10.60
2018-04-27T05:58:17.499Z,10.60
2018-04-27T06:00:43.805Z,10.60
2018-04-27T06:03:10.161Z,10.80
2018-04-27T06:05:37.179Z,10.90
2018-04-27T06:08:03.472Z,10.90
2018-04-27T06:10:29.788Z,11.10
2018-04-27T06:12:56.106Z,11.30
2018-04-27T06:15:22.392Z,11.20
2018-04-27T06:17:48.667Z,11.40
2018-04-27T06:20:15.051Z,11.80
2018-04-27T06:22:45.278Z,11.80
2018-04-27T06:25:11.641Z,12.10
2018-04-27T06:27:38.665Z,12.10
2018-04-27T06:30:05.015Z,12.00
2018-04-27T06:32:32.284Z,12.10
2018-04-27T06:34:58.602Z,12.00
2018-04-27T06:37:25.669Z,11.70
2018-04-27T06:39:52.050Z,11.70
2018-04-27T06:42:18.395Z,12.20
2018-04-27T06:44:44.703Z,12.00
2018-04-27T06:47:11.008Z,12.60
2018-04-27T06:49:37.306Z,12.30
2018-04-27T06:52:04.342Z,13.20
2018-04-27T06:54:31.376Z,13.30
2018-04-27T06:56:57.649Z,13.20
2018-04-27T06:59:24.003Z,13.40
2018-04-27T07:01:51.039Z,13.40
2018-04-27T07:04:17.372Z,13.30
2018-04-27T07:06:43.722Z,13.50
2018-04-27T07:09:10.030Z,13.20
2018-04-27T07:11:36.329Z,13.60
2018-04-27T07:14:02.604Z,14.10
2018-04-27T07:16:28.890Z,14.40
2018-04-27T07:18:55.933Z,14.10
2018-04-27T07:21:22.234Z,14.10
2018-04-27T07:23:48.507Z,14.70
2018-04-27T07:26:15.593Z,15.60
2018-04-27T07:28:41.927Z,15.60
2018-04-27T07:31:08.162Z,15.20
2018-04-27T07:33:34.464Z,15.20
2018-04-27T07:36:00.722Z,15.30
2018-04-27T07:38:27.037Z,15.60
2018-04-27T07:40:53.301Z,14.80
2018-04-27T07:43:19.556Z,14.60
2018-04-27T07:45:46.631Z,15.40
2018-04-27T07:48:12.916Z,15.40
2018-04-27T07:50:39.217Z,15.90
2018-04-27T07:53:05.514Z,16.90
2018-04-27T07:55:31.833Z,17.40
2018-04-27T07:57:58.875Z,17.80
2018-04-27T08:00:25.927Z,17.90
2018-04-27T08:02:52.947Z,17.50
2018-04-27T08:05:19.310Z,17.50
2018-04-27T08:07:46.319Z,17.60
2018-04-27T08:10:12.618Z,17.60
2018-04-27T08:12:38.918Z,17.70
2018-04-27T08:15:05.252Z,17.40
2018-04-27T08:17:32.361Z,18.00
2018-04-27T08:19:58.671Z,18.00
2018-04-27T08:22:24.994Z,18.10
2018-04-27T08:24:51.332Z,17.90
2018-04-27T08:27:17.746Z,18.10
2018-04-27T08:29:44.040Z,17.70
2018-04-27T08:32:10.325Z,18.10
2018-04-27T08:34:36.594Z,18.30
2018-04-27T08:37:02.876Z,18.30
2018-04-27T08:39:29.150Z,18.30
2018-04-27T08:41:55.486Z,18.60
2018-04-27T08:44:28.781Z,18.50
2018-04-27T08:46:55.081Z,18.50
2018-04-27T08:49:21.376Z,18.90
2018-04-27T08:51:47.720Z,17.70
2018-04-27T08:54:13.996Z,17.50
2018-04-27T08:56:40.267Z,17.70
2018-04-27T08:59:06.542Z,18.10
2018-04-27T09:01:32.830Z,17.80
2018-04-27T09:03:59.064Z,17.60
2018-04-27T09:06:25.398Z,18.20
2018-04-27T09:08:51.832Z,18.20
2018-04-27T09:11:18.198Z,17.90
2018-04-27T09:13:44.579Z,17.80
2018-04-27T09:16:11.743Z,17.50
2018-04-27T09:18:38.032Z,17.50
2018-04-27T09:21:04.415Z,18.10
2018-04-27T09:23:30.721Z,17.80
2018-04-27T09:25:57.765Z,18.20
2018-04-27T09:28:24.782Z,18.50
2018-04-27T09:30:51.103Z,18.50
2018-04-27T09:33:17.444Z,18.40
2018-04-27T09:35:43.758Z,18.20
2018-04-27T09:38:10.042Z,18.20
2018-04-27T09:40:36.369Z,18.60
2018-04-27T09:43:03.469Z,17.70
2018-04-27T09:45:29.824Z,17.70
2018-04-27T09:48:03.044Z,17.50
2018-04-27T09:50:29.379Z,17.30
2018-04-27T09:52:56.495Z,17.80
2018-04-27T09:55:22.780Z,17.80
2018-04-27T09:57:49.056Z,17.90
2018-04-27T10:00:15.349Z,18.00
2018-04-27T10:02:41.651Z,18.80
2018-04-27T10:05:08.662Z,19.20
2018-04-27T10:07:35.011Z,19.20
2018-04-27T10:10:02.188Z,19.10
2018-04-27T10:12:28.481Z,19.10
2018-04-27T10:14:54.885Z,18.60
2018-04-27T10:17:21.899Z,18.70
2018-04-27T10:19:48.233Z,18.70
2018-04-27T10:22:14.542Z,18.20
2018-04-27T10:24:41.575Z,17.30
2018-04-27T10:27:08.048Z,17.30
2018-04-27T10:29:34.415Z,17.80
2018-04-27T10:32:00.775Z,18.20
2018-04-27T10:34:27.080Z,18.30
2018-04-27T10:36:53.356Z,18.20
2018-04-27T10:39:20.351Z,18.90
2018-04-27T10:41:46.662Z,18.90
2018-04-27T10:44:12.974Z,19.30
2018-04-27T10:46:39.277Z,19.30
2018-04-27T10:49:05.623Z,19.50
2018-04-27T10:51:32.665Z,19.30
2018-04-27T10:53:59.682Z,19.60
2018-04-27T10:56:25.966Z,19.60
2018-04-27T10:58:52.254Z,19.70
2018-04-27T11:01:18.522Z,19.30
2018-04-27T11:03:44.817Z,19.40
2018-04-27T11:06:11.224Z,19.10
2018-04-27T11:08:37.520Z,20.00
2018-04-27T11:11:03.893Z,20.60
2018-04-27T11:13:30.138Z,20.70
2018-04-27T11:15:56.475Z,21.10
2018-04-27T11:18:22.806Z,21.10
2018-04-27T11:20:49.070Z,20.40
2018-04-27T11:23:15.373Z,21.00
2018-04-27T11:25:42.408Z,21.20
2018-04-27T11:28:08.693Z,21.10
2018-04-27T11:30:35.008Z,20.90
2018-04-27T11:33:01.283Z,20.70
2018-04-27T11:35:27.567Z,20.80
2018-04-27T11:37:53.944Z,20.80
2018-04-27T11:40:20.214Z,21.70
2018-04-27T11:42:47.270Z,21.20
2018-04-27T11:45:14.269Z,21.30
2018-04-27T11:47:40.568Z,21.30
2018-04-27T11:50:07.628Z,23.30
2018-04-27T11:52:33.917Z,23.20
2018-04-27T11:55:00.941Z,24.30
2018-04-27T11:57:27.266Z,24.30
2018-04-27T11:59:53.573Z,23.80
2018-04-27T12:02:19.858Z,24.20
2018-04-27T12:04:46.951Z,23.20
2018-04-27T12:07:13.269Z,23.20
2018-04-27T12:09:39.574Z,24.10
2018-04-27T12:12:06.614Z,26.80
2018-04-27T12:14:33.644Z,27.00
2018-04-27T12:16:59.949Z,26.90
2018-04-27T12:19:26.217Z,27.50
2018-04-27T12:21:53.254Z,26.80
2018-04-27T12:24:19.536Z,26.70
2018-04-27T12:26:45.833Z,28.00
2018-04-27T12:29:12.823Z,28.10
2018-04-27T12:31:39.225Z,28.10
2018-04-27T12:34:05.470Z,28.50
2018-04-27T12:36:31.747Z,27.10
2018-04-27T12:38:58.107Z,25.50
2018-04-27T12:41:24.313Z,26.40
2018-04-27T12:43:50.575Z,27.50
2018-04-27T12:46:16.870Z,27.60
2018-04-27T12:48:43.148Z,30.70
2018-04-27T12:51:09.431Z,32.40
2018-04-27T12:53:35.885Z,32.90
2018-04-27T12:56:02.128Z,33.20
2018-04-27T12:58:28.469Z,31.80
2018-04-27T13:00:57.200Z,30.90
2018-04-27T13:03:23.470Z,32.30
2018-04-27T13:05:50.490Z,33.60
2018-04-27T13:08:16.796Z,33.50
2018-04-27T13:10:43.148Z,33.30
2018-04-27T13:13:09.456Z,32.30
2018-04-27T13:15:36.279Z,34.10
2018-04-27T13:18:02.644Z,34.70
2018-04-27T13:20:29.101Z,33.70
2018-04-27T13:22:56.158Z,36.00
2018-04-27T13:25:23.150Z,37.70
2018-04-27T13:27:49.425Z,37.50
2018-04-27T13:30:15.693Z,36.00
2018-04-27T13:32:42.083Z,35.80
2018-04-27T13:35:08.361Z,35.50
2018-04-27T13:37:34.799Z,36.60
2018-04-27T13:40:01.079Z,35.70
2018-04-27T13:42:27.553Z,32.00
2018-04-27T13:44:53.857Z,34.80
2018-04-27T13:47:20.855Z,33.50
2018-04-27T13:49:47.139Z,33.50
2018-04-27T13:52:14.155Z,32.10
2018-04-27T13:54:40.446Z,32.10
2018-04-27T13:57:06.771Z,33.70
2018-04-27T13:59:33.059Z,34.70
2018-04-27T14:01:59.343Z,36.10
2018-04-27T14:04:25.681Z,33.20
2018-04-27T14:06:51.952Z,33.90
2018-04-27T14:09:19.056Z,36.10
2018-04-27T14:11:45.342Z,36.00
2018-04-27T14:14:12.378Z,35.60
2018-04-27T14:16:38.694Z,35.60
2018-04-27T14:19:05.029Z,35.70
2018-04-27T14:21:31.362Z,38.20
2018-04-27T14:23:57.642Z,38.10
2018-04-27T14:26:23.907Z,36.60
2018-04-27T14:28:50.223Z,37.00
2018-04-27T14:31:16.500Z,37.60
2018-04-27T14:33:43.599Z,37.40
2018-04-27T14:36:10.576Z,36.30
2018-04-27T14:38:36.893Z,36.30
2018-04-27T14:41:03.299Z,37.70
2018-04-27T14:43:29.714Z,39.20
2018-04-27T14:45:56.075Z,38.40
2018-04-27T14:48:22.484Z,38.00
2018-04-27T14:50:48.831Z,36.90
2018-04-27T14:53:15.163Z,38.30
2018-04-27T14:55:41.479Z,37.70
2018-04-27T14:58:07.827Z,38.80
2018-04-27T15:00:34.160Z,38.40
2018-04-27T15:03:00.516Z,37.30
2018-04-27T15:05:26.793Z,37.60
2018-04-27T15:07:53.839Z,34.80
2018-04-27T15:10:20.987Z,35.20
2018-04-27T15:12:48.023Z,37.80
2018-04-27T15:15:15.093Z,36.80
2018-04-27T15:17:41.383Z,36.70
2018-04-27T15:20:07.702Z,33.80
2018-04-27T15:22:34.006Z,35.60
2018-04-27T15:25:00.303Z,37.30
2018-04-27T15:27:27.349Z,36.70
2018-04-27T15:29:54.427Z,36.50
2018-04-27T15:32:20.745Z,36.40
2018-04-27T15:34:47.136Z,36.60
2018-04-27T15:37:13.430Z,34.40
2018-04-27T15:39:39.720Z,34.70
2018-04-27T15:42:06.718Z,35.20
2018-04-27T15:44:33.020Z,35.20
2018-04-27T15:46:59.373Z,33.80
2018-04-27T15:49:25.691Z,34.50
2018-04-27T15:51:51.970Z,35.80
2018-04-27T15:54:18.284Z,35.20
2018-04-27T15:56:44.650Z,32.40
2018-04-27T15:59:11.811Z,31.70
2018-04-27T16:01:38.169Z,31.70
2018-04-27T16:04:04.560Z,30.60
2018-04-27T16:06:31.637Z,27.70
2018-04-27T16:08:57.979Z,27.50
2018-04-27T16:11:24.341Z,26.70
2018-04-27T16:13:50.662Z,25.80
2018-04-27T16:16:16.960Z,25.70
2018-04-27T16:18:43.206Z,25.90
2018-04-27T16:21:09.496Z,26.70
2018-04-27T16:23:35.713Z,28.40
2018-04-27T16:26:01.983Z,29.30
2018-04-27T16:28:28.247Z,27.70
2018-04-27T16:30:54.582Z,26.50
2018-04-27T16:33:20.866Z,25.40
2018-04-27T16:35:47.276Z,25.00
2018-04-27T16:38:13.621Z,23.60
2018-04-27T16:40:40.599Z,24.00
2018-04-27T16:43:06.903Z,24.00
2018-04-27T16:45:33.931Z,23.50
2018-04-27T16:48:00.225Z,23.50
2018-04-27T16:50:26.564Z,22.80
2018-04-27T16:52:52.849Z,22.40
2018-04-27T16:55:19.174Z,22.20
2018-04-27T16:57:46.193Z,21.50
2018-04-27T17:00:12.545Z,21.50
2018-04-27T17:02:39.187Z,21.00
2018-04-27T17:05:06.195Z,21.70
2018-04-27T17:07:33.385Z,21.70
2018-04-27T17:10:00.378Z,24.00
2018-04-27T17:12:26.644Z,24.00
2018-04-27T17:14:52.954Z,24.20
2018-04-27T17:17:19.250Z,24.70
2018-04-27T17:19:45.569Z,24.60
2018-04-27T17:22:11.869Z,24.40
2018-04-27T17:24:38.171Z,24.60
2018-04-27T17:27:04.455Z,25.70
2018-04-27T17:29:31.301Z,26.40
2018-04-27T17:31:58.206Z,25.60
2018-04-27T17:34:24.571Z,24.90
2018-04-27T17:36:50.918Z,24.10
2018-04-27T17:39:17.209Z,23.30
2018-04-27T17:41:43.602Z,22.80
2018-04-27T17:44:09.915Z,22.00
2018-04-27T17:46:36.239Z,21.60
2018-04-27T17:49:02.528Z,21.20
2018-04-27T17:51:28.841Z,20.70
2018-04-27T17:53:55.129Z,20.10
2018-04-27T17:56:21.436Z,19.70
2018-04-27T17:58:48.446Z,18.80
2018-04-27T18:01:14.753Z,18.70
2018-04-27T18:03:41.043Z,18.50
2018-04-27T18:06:08.124Z,18.10
2018-04-27T18:08:34.457Z,18.10
2018-04-27T18:11:00.802Z,17.90
2018-04-27T18:13:27.092Z,17.70
2018-04-27T18:15:54.132Z,17.40
2018-04-27T18:18:21.188Z,17.20
2018-04-27T18:20:48.257Z,17.10
2018-04-27T18:23:14.565Z,17.10
2018-04-27T18:25:41.664Z,16.90
2018-04-27T18:28:08.905Z,16.80
2018-04-27T18:30:35.166Z,16.80
2018-04-27T18:33:01.468Z,16.70
2018-04-27T18:35:27.786Z,16.50
2018-04-27T18:37:54.095Z,16.30
2018-04-27T18:40:21.141Z,16.10
2018-04-27T18:42:48.247Z,15.90
2018-04-27T18:45:14.581Z,15.90
2018-04-27T18:47:41.634Z,15.60
2018-04-27T18:50:08.063Z,15.50
2018-04-27T18:52:34.380Z,15.50
2018-04-27T18:55:00.663Z,15.40
2018-04-27T18:57:27.764Z,15.20
2018-04-27T18:59:54.058Z,15.20
2018-04-27T19:02:20.390Z,15.20
2018-04-27T19:04:46.651Z,15.10
2018-04-27T19:07:12.934Z,15.10
2018-04-27T19:09:40.797Z,14.90
2018-04-27T19:12:07.842Z,14.80
2018-04-27T19:14:34.911Z,14.80
2018-04-27T19:17:01.238Z,14.70
2018-04-27T19:19:27.634Z,14.70
2018-04-27T19:21:53.946Z,14.60
2018-04-27T19:24:20.239Z,14.50
2018-04-27T19:26:46.523Z,14.50
2018-04-27T19:29:12.854Z,14.30
2018-04-27T19:31:39.258Z,14.30
2018-04-27T19:34:05.570Z,14.20
2018-04-27T19:36:31.916Z,14.00
2018-04-27T19:38:58.221Z,13.90
2018-04-27T19:41:24.527Z,13.90
2018-04-27T19:43:50.794Z,13.70
2018-04-27T19:46:17.107Z,13.60
2018-04-27T19:48:44.216Z,13.40
2018-04-27T19:51:10.496Z,13.40
2018-04-27T19:53:36.783Z,13.30
2018-04-27T19:56:03.108Z,13.30
2018-04-27T19:58:29.454Z,13.20
2018-04-27T20:00:55.777Z,13.20
2018-04-27T20:03:22.092Z,13.10
2018-04-27T20:05:48.372Z,13.00
2018-04-27T20:08:15.398Z,12.90
2018-04-27T20:10:41.847Z,12.90
2018-04-27T20:13:10.880Z,12.80
2018-04-27T20:15:39.811Z,12.80
2018-04-27T20:18:07.133Z,12.80
2018-04-27T20:20:33.456Z,12.70
2018-04-27T20:23:00.676Z,12.70
2018-04-27T20:25:27.758Z,12.50
2018-04-27T20:27:54.115Z,12.50
2018-04-27T20:30:20.443Z,12.40
2018-04-27T20:32:47.515Z,12.40
2018-04-27T20:35:14.562Z,12.20
2018-04-27T20:37:41.690Z,12.20
2018-04-27T20:40:14.357Z,12.10
2018-04-27T20:42:42.786Z,12.10
2018-04-27T20:45:09.883Z,11.90
2018-04-27T20:47:36.159Z,11.90
2018-04-27T20:50:04.247Z,11.80
2018-04-27T20:52:35.488Z,11.70
2018-04-27T20:55:06.418Z,11.60
2018-04-27T20:57:33.416Z,11.50
2018-04-27T20:59:59.786Z,11.50
2018-04-27T21:02:26.467Z,11.50
2018-04-27T21:04:53.251Z,11.50
2018-04-27T21:07:20.044Z,11.40
2018-04-27T21:09:46.616Z,11.30
2018-04-27T21:12:12.878Z,11.40
2018-04-27T21:14:39.190Z,11.30
2018-04-27T21:17:05.457Z,11.20
2018-04-27T21:19:31.803Z,11.20
2018-04-27T21:21:58.125Z,11.20
2018-04-27T21:24:24.367Z,11.20
2018-04-27T21:26:50.694Z,11.20
2018-04-27T21:29:17.818Z,11.20
2018-04-27T21:31:44.086Z,11.20
2018-04-27T21:34:10.372Z,11.20
2018-04-27T21:36:36.663Z,11.20
2018-04-27T21:39:06.972Z,11.20
2018-04-27T21:41:49.091Z,11.10
2018-04-27T21:47:42.712Z,11.10
2018-04-27T21:50:09.030Z,11.10
2018-04-27T21:52:50.367Z,11.00
2018-04-27T21:55:16.683Z,11.00
2018-04-27T21:58:02.623Z,11.00
2018-04-27T22:00:28.924Z,11.00
2018-04-27T22:02:58.124Z,11.00
2018-04-27T22:08:30.988Z,11.00
2018-04-27T22:10:58.270Z,10.90
2018-04-27T22:13:24.576Z,10.90
2018-04-27T22:15:51.669Z,11.00
2018-04-27T22:18:17.994Z,11.00
2018-04-27T22:20:45.102Z,10.90
2018-04-27T22:23:11.414Z,11.00
2018-04-27T22:25:38.646Z,10.90
2018-04-27T22:28:04.925Z,11.00
2018-04-27T22:30:35.595Z,10.90
2018-04-27T22:33:30.102Z,10.90
2018-04-27T22:42:14.530Z,10.80
2018-04-27T22:44:48.988Z,10.70
2018-04-27T22:47:19.816Z,10.60
2018-04-27T22:49:46.881Z,10.60
2018-04-27T22:52:13.167Z,10.60
2018-04-27T22:54:39.470Z,10.60
2018-04-27T23:00:14.429Z,10.40
2018-04-27T23:02:40.721Z,10.40
2018-04-27T23:05:10.868Z,10.30
2018-04-27T23:07:37.165Z,10.40
2018-04-27T23:10:03.496Z,10.30
2018-04-27T23:12:29.771Z,10.40
2018-04-27T23:14:56.115Z,10.40
2018-04-27T23:17:22.443Z,10.30
2018-04-27T23:20:04.683Z,10.30
2018-04-27T23:22:41.423Z,10.20
2018-04-27T23:25:17.725Z,10.20
2018-04-27T23:27:45.829Z,10.10
2018-04-27T23:30:12.156Z,10.10
2018-04-27T23:32:39.333Z,10.10
2018-04-27T23:35:05.672Z,10.10
2018-04-27T23:37:32.046Z,10.10
2018-04-27T23:39:59.062Z,10.00
2018-04-27T23:42:25.390Z,10.00
2018-04-27T23:44:51.723Z,9.90
2018-04-27T23:47:18.031Z,9.90
2018-04-27T23:49:44.362Z,9.90
2018-04-27T23:52:10.704Z,9.80
2018-04-27T23:54:36.996Z,9.80
2018-04-27T23:57:03.302Z,9.80
2018-04-27T23:59:33.314Z,9.90
